createdAt,value
2023-05-04T00:00:48.230Z,21.37
2023-05-04T00:01:48.226Z,21.36
2023-05-04T00:02:48.367Z,21.10
2023-05-04T00:03:48.415Z,20.98
2023-05-04T00:04:48.284Z,21.24
2023-05-04T00:05:48.218Z,21.05
2023-05-04T00:06:48.229Z,21.07
2023-05-04T00:07:48.234Z,21.10
2023-05-04T00:08:48.232Z,21.16
2023-05-04T00:09:48.227Z,21.23
2023-05-04T00:10:48.258Z,21.06
2023-05-04T00:11:48.240Z,21.28
2023-05-04T00:12:48.240Z,21.54
2023-05-04T00:13:48.244Z,21.56
2023-05-04T00:14:48.207Z,21.55
2023-05-04T00:15:48.311Z,21.57
2023-05-04T00:16:48.236Z,21.62
2023-05-04T00:17:48.316Z,21.66
2023-05-04T00:18:48.223Z,21.68
2023-05-04T00:19:48.227Z,21.64
2023-05-04T00:20:48.223Z,21.96
2023-05-04T00:21:48.238Z,21.44
2023-05-04T00:22:48.260Z,21.53
2023-05-04T00:23:48.225Z,21.49
2023-05-04T00:24:48.228Z,21.71
2023-05-04T00:25:48.226Z,21.23
2023-05-04T00:26:48.283Z,21.31
2023-05-04T00:27:48.336Z,21.36
2023-05-04T00:28:48.400Z,21.39
2023-05-04T00:29:48.462Z,21.10
2023-05-04T00:30:48.508Z,21.31
2023-05-04T00:31:48.584Z,21.09
2023-05-04T00:32:48.693Z,21.02
2023-05-04T00:33:48.653Z,21.26
2023-05-04T00:34:48.726Z,21.35
2023-05-04T00:35:48.773Z,20.62
2023-05-04T00:36:48.834Z,21.35
2023-05-04T00:37:48.864Z,21.06
2023-05-04T00:38:48.926Z,20.92
2023-05-04T00:39:48.961Z,20.48
2023-05-04T00:40:49.030Z,20.79
2023-05-04T00:41:49.077Z,20.66
2023-05-04T00:42:49.107Z,20.38
2023-05-04T00:43:49.185Z,20.63
2023-05-04T00:44:49.225Z,20.70
2023-05-04T00:45:49.279Z,20.85
2023-05-04T00:46:49.400Z,20.73
2023-05-04T00:47:49.439Z,20.57
2023-05-04T00:48:49.441Z,20.68
2023-05-04T00:49:49.488Z,21.12
2023-05-04T00:50:49.576Z,20.68
2023-05-04T00:51:49.610Z,20.45
2023-05-04T00:52:49.639Z,20.65
2023-05-04T00:53:49.676Z,20.74
2023-05-04T00:54:49.741Z,19.98
2023-05-04T00:55:49.808Z,20.70
2023-05-04T00:56:50.231Z,20.71
2023-05-04T00:57:49.890Z,19.79
2023-05-04T00:58:49.961Z,20.77
2023-05-04T00:59:50.174Z,20.56
2023-05-04T01:00:50.107Z,20.33
2023-05-04T01:01:50.136Z,20.14
2023-05-04T01:02:50.264Z,20.47
2023-05-04T01:03:50.213Z,20.20
2023-05-04T01:04:50.246Z,20.05
2023-05-04T01:05:50.321Z,20.02
2023-05-04T01:06:50.371Z,19.98
2023-05-04T01:07:50.424Z,20.05
2023-05-04T01:08:50.457Z,19.95
2023-05-04T01:09:50.530Z,19.74
2023-05-04T01:10:50.610Z,19.70
2023-05-04T01:11:50.648Z,19.60
2023-05-04T01:12:50.701Z,19.80
2023-05-04T01:13:50.724Z,19.54
2023-05-04T01:14:50.766Z,19.85
2023-05-04T01:15:50.881Z,19.56
2023-05-04T01:16:50.910Z,20.14
2023-05-04T01:17:50.974Z,19.52
2023-05-04T01:18:50.976Z,19.64
2023-05-04T01:19:51.053Z,19.59
2023-05-04T01:20:51.083Z,19.46
2023-05-04T01:21:51.164Z,19.44
2023-05-04T01:22:51.233Z,19.54
2023-05-04T01:23:51.262Z,19.59
2023-05-04T01:24:51.296Z,19.61
2023-05-04T01:25:51.364Z,19.37
2023-05-04T01:26:51.396Z,19.22
2023-05-04T01:27:51.441Z,19.05
2023-05-04T01:28:51.513Z,19.18
2023-05-04T01:29:51.540Z,19.21
2023-05-04T01:30:51.662Z,19.09
2023-05-04T01:31:51.648Z,18.79
2023-05-04T01:32:51.746Z,19.27
2023-05-04T01:33:51.784Z,19.24
2023-05-04T01:34:51.812Z,18.83
2023-05-04T01:35:51.857Z,18.64
2023-05-04T01:36:51.908Z,18.88
2023-05-04T01:37:52.020Z,18.53
2023-05-04T01:38:52.000Z,18.53
2023-05-04T01:39:52.052Z,18.38
2023-05-04T01:40:52.104Z,17.85
2023-05-04T01:41:52.154Z,17.51
2023-05-04T01:42:52.240Z,17.66
2023-05-04T01:43:52.242Z,17.60
2023-05-04T01:44:52.321Z,17.70
2023-05-04T01:45:52.360Z,17.83
2023-05-04T01:46:52.414Z,17.48
2023-05-04T01:47:52.509Z,17.62
2023-05-04T01:48:52.527Z,17.10
2023-05-04T01:49:52.568Z,17.24
2023-05-04T01:50:52.669Z,16.95
2023-05-04T01:51:52.705Z,16.99
2023-05-04T01:52:52.741Z,16.82
2023-05-04T01:53:52.799Z,16.71
2023-05-04T01:54:52.860Z,16.67
2023-05-04T01:55:52.896Z,16.87
2023-05-04T01:56:52.997Z,16.76
2023-05-04T01:57:53.024Z,16.60
2023-05-04T01:58:53.097Z,16.41
2023-05-04T01:59:53.116Z,16.17
2023-05-04T02:00:53.187Z,16.21
2023-05-04T02:01:53.257Z,16.22
2023-05-04T02:02:53.238Z,16.21
2023-05-04T02:03:53.353Z,16.23
2023-05-04T02:04:53.197Z,15.67
2023-05-04T02:05:53.196Z,15.83
2023-05-04T02:06:53.260Z,15.74
2023-05-04T02:07:53.187Z,15.85
2023-05-04T02:08:53.199Z,15.32
2023-05-04T02:09:53.196Z,15.34
2023-05-04T02:10:53.214Z,15.37
2023-05-04T02:11:53.212Z,15.39
2023-05-04T02:12:53.238Z,15.52
2023-05-04T02:13:53.190Z,15.60
2023-05-04T02:14:53.185Z,15.31
2023-05-04T02:15:53.203Z,15.26
2023-05-04T02:16:53.207Z,15.05
2023-05-04T02:17:53.208Z,15.03
2023-05-04T02:18:53.190Z,15.13
2023-05-04T02:19:53.224Z,14.84
2023-05-04T02:20:53.304Z,14.51
2023-05-04T02:21:53.332Z,14.54
2023-05-04T02:22:53.287Z,14.62
2023-05-04T02:23:53.290Z,14.82
2023-05-04T02:24:53.330Z,14.75
2023-05-04T02:25:53.315Z,14.98
2023-05-04T02:26:53.302Z,15.00
2023-05-04T02:27:53.342Z,14.67
2023-05-04T02:28:53.275Z,14.84
2023-05-04T02:29:53.273Z,14.96
2023-05-04T02:30:53.285Z,14.95
2023-05-04T02:31:53.365Z,15.01
2023-05-04T02:32:53.432Z,14.80
2023-05-04T02:33:53.439Z,14.87
2023-05-04T02:34:53.487Z,14.70
2023-05-04T02:35:53.556Z,14.81
2023-05-04T02:36:53.596Z,14.69
2023-05-04T02:37:53.682Z,14.54
2023-05-04T02:38:53.732Z,14.37
2023-05-04T02:39:53.762Z,14.06
2023-05-04T02:40:53.819Z,13.62
2023-05-04T02:41:53.963Z,12.96
2023-05-04T02:42:53.944Z,12.42
2023-05-04T02:43:53.979Z,11.86
2023-05-04T02:44:54.046Z,11.26
2023-05-04T02:45:54.121Z,10.45
2023-05-04T02:46:54.174Z,10.12
2023-05-04T02:47:54.316Z,9.50
2023-05-04T02:48:54.332Z,9.07
2023-05-04T02:49:54.414Z,8.72
2023-05-04T02:50:54.435Z,8.61
2023-05-04T02:51:54.501Z,8.21
2023-05-04T02:52:54.565Z,7.83
2023-05-04T02:53:54.664Z,7.55
2023-05-04T02:54:54.703Z,7.44
2023-05-04T02:55:54.747Z,7.08
2023-05-04T02:56:54.818Z,6.82
2023-05-04T02:57:54.896Z,6.70
2023-05-04T02:58:54.930Z,6.67
2023-05-04T02:59:54.996Z,6.50
2023-05-04T03:00:55.090Z,6.33
2023-05-04T03:01:55.201Z,5.87
2023-05-04T03:02:55.195Z,5.67
2023-05-04T03:03:55.248Z,5.50
2023-05-04T03:04:55.260Z,5.14
2023-05-04T03:05:55.289Z,4.99
2023-05-04T03:06:55.338Z,4.97
2023-05-04T03:07:55.338Z,4.95
2023-05-04T03:08:55.328Z,4.77
2023-05-04T03:09:55.357Z,4.82
2023-05-04T03:10:55.367Z,4.70
2023-05-04T03:11:55.375Z,4.71
2023-05-04T03:12:55.450Z,4.71
2023-05-04T03:13:55.414Z,4.68
2023-05-04T03:14:55.366Z,4.58
2023-05-04T03:15:55.381Z,4.56
2023-05-04T03:16:55.470Z,4.49
2023-05-04T03:17:55.429Z,4.37
2023-05-04T03:18:55.408Z,4.18
2023-05-04T03:19:55.425Z,4.15
2023-05-04T03:20:55.420Z,4.12
2023-05-04T03:21:55.450Z,4.02
2023-05-04T03:22:55.440Z,4.15
2023-05-04T03:23:55.453Z,4.03
2023-05-04T03:24:55.460Z,3.87
2023-05-04T03:25:55.455Z,3.86
2023-05-04T03:26:55.486Z,3.84
2023-05-04T03:27:55.507Z,3.71
2023-05-04T03:28:55.503Z,3.65
2023-05-04T03:29:55.518Z,3.70
2023-05-04T03:30:55.519Z,3.53
2023-05-04T03:31:55.551Z,3.46
2023-05-04T03:32:55.623Z,3.44
2023-05-04T03:33:55.550Z,3.41
2023-05-04T03:34:55.562Z,3.45
2023-05-04T03:35:55.564Z,3.46
2023-05-04T03:36:55.569Z,3.46
2023-05-04T03:37:55.583Z,3.49
2023-05-04T03:38:55.599Z,3.55
2023-05-04T03:39:55.613Z,3.52
2023-05-04T03:40:55.619Z,3.59
2023-05-04T03:41:55.617Z,3.73
2023-05-04T03:42:55.619Z,3.68
2023-05-04T03:43:55.627Z,3.75
2023-05-04T03:44:55.659Z,3.80
2023-05-04T03:45:55.698Z,3.89
2023-05-04T03:46:55.700Z,3.89
2023-05-04T03:47:55.735Z,3.94
2023-05-04T03:48:55.694Z,3.98
2023-05-04T03:49:55.707Z,4.11
2023-05-04T03:50:55.763Z,4.13
2023-05-04T03:51:55.780Z,4.09
2023-05-04T03:52:55.836Z,4.13
2023-05-04T03:53:55.880Z,4.20
2023-05-04T03:54:55.948Z,4.26
2023-05-04T03:55:55.998Z,4.19
2023-05-04T03:56:56.036Z,4.23
2023-05-04T03:57:56.073Z,4.22
2023-05-04T03:58:56.079Z,4.20
2023-05-04T03:59:57.810Z,4.16
2023-05-04T04:00:56.149Z,4.25
2023-05-04T04:01:56.189Z,4.40
2023-05-04T04:02:56.274Z,4.32
2023-05-04T04:03:56.555Z,4.27
2023-05-04T04:04:56.328Z,4.28
2023-05-04T04:05:56.330Z,4.30
2023-05-04T04:06:56.345Z,4.29
2023-05-04T04:07:56.372Z,4.34
2023-05-04T04:08:56.394Z,4.36
2023-05-04T04:09:56.382Z,4.32
2023-05-04T04:10:56.381Z,4.20
2023-05-04T04:11:56.402Z,4.06
2023-05-04T04:12:56.475Z,3.98
2023-05-04T04:13:56.427Z,4.09
2023-05-04T04:14:56.425Z,3.96
2023-05-04T04:15:56.545Z,3.92
2023-05-04T04:16:56.489Z,3.82
2023-05-04T04:17:56.529Z,3.71
2023-05-04T04:18:56.503Z,3.62
2023-05-04T04:19:56.483Z,3.63
2023-05-04T04:20:56.497Z,3.51
2023-05-04T04:21:56.569Z,3.45
2023-05-04T04:22:56.560Z,3.48
2023-05-04T04:23:56.542Z,3.40
2023-05-04T04:24:56.584Z,3.35
2023-05-04T04:25:56.584Z,3.35
2023-05-04T04:26:56.595Z,3.35
2023-05-04T04:27:56.635Z,3.36
2023-05-04T04:28:56.643Z,3.36
2023-05-04T04:29:56.688Z,3.35
2023-05-04T04:30:56.692Z,3.32
2023-05-04T04:31:56.783Z,3.36
2023-05-04T04:32:56.732Z,3.26
2023-05-04T04:33:56.734Z,3.34
2023-05-04T04:34:56.749Z,3.41
2023-05-04T04:35:56.771Z,3.37
2023-05-04T04:36:56.784Z,3.31
2023-05-04T04:37:56.805Z,3.35
2023-05-04T04:38:56.817Z,3.35
2023-05-04T04:39:56.838Z,3.37
2023-05-04T04:40:56.872Z,3.37
2023-05-04T04:41:56.842Z,3.29
2023-05-04T04:42:56.892Z,3.30
2023-05-04T04:43:56.880Z,3.29
2023-05-04T04:44:56.911Z,3.22
2023-05-04T04:45:56.911Z,3.25
2023-05-04T04:46:57.104Z,3.21
2023-05-04T04:47:57.042Z,3.20
2023-05-04T04:48:57.001Z,3.20
2023-05-04T04:49:57.026Z,3.19
2023-05-04T04:50:57.033Z,3.17
2023-05-04T04:51:57.075Z,3.20
2023-05-04T04:52:57.109Z,3.18
2023-05-04T04:53:57.131Z,3.14
2023-05-04T04:54:57.179Z,3.13
2023-05-04T04:55:57.207Z,3.21
2023-05-04T04:56:57.255Z,3.08
2023-05-04T04:57:57.318Z,3.08
2023-05-04T04:58:57.276Z,3.09
2023-05-04T04:59:57.316Z,3.09
2023-05-04T05:00:57.359Z,3.11
2023-05-04T05:01:57.330Z,3.11
2023-05-04T05:02:57.436Z,3.06
2023-05-04T05:03:57.363Z,3.05
2023-05-04T05:04:57.461Z,3.03
2023-05-04T05:05:57.505Z,3.04
2023-05-04T05:06:57.425Z,3.03
2023-05-04T05:07:57.468Z,3.04
2023-05-04T05:08:57.453Z,3.04
2023-05-04T05:09:57.477Z,3.04
2023-05-04T05:10:57.484Z,3.06
2023-05-04T05:11:57.501Z,2.97
2023-05-04T05:12:57.574Z,2.94
2023-05-04T05:13:57.521Z,2.95
2023-05-04T05:14:57.546Z,2.92
2023-05-04T05:15:57.549Z,2.94
2023-05-04T05:16:57.668Z,2.90
2023-05-04T05:17:57.632Z,2.92
2023-05-04T05:18:57.598Z,2.90
2023-05-04T05:19:57.618Z,2.90
2023-05-04T05:20:57.651Z,2.87
2023-05-04T05:21:57.665Z,2.94
2023-05-04T05:22:57.672Z,2.93
2023-05-04T05:23:57.693Z,2.98
2023-05-04T05:24:57.691Z,2.92
2023-05-04T05:25:57.723Z,2.91
2023-05-04T05:26:57.727Z,2.85
2023-05-04T05:27:59.118Z,2.85
2023-05-04T05:28:57.782Z,2.86
2023-05-04T05:29:57.772Z,2.87
2023-05-04T05:30:57.891Z,2.84
2023-05-04T05:31:57.810Z,2.86
2023-05-04T05:32:58.301Z,2.86
2023-05-04T05:33:57.843Z,2.90
2023-05-04T05:35:05.656Z,2.90
2023-05-04T05:35:57.896Z,2.90
2023-05-04T05:36:57.953Z,2.91
2023-05-04T05:37:58.434Z,2.90
2023-05-04T05:38:57.934Z,2.94
2023-05-04T05:39:57.936Z,2.97
2023-05-04T05:40:57.960Z,2.89
2023-05-04T05:41:57.976Z,2.87
2023-05-04T05:42:58.008Z,2.88
2023-05-04T05:43:58.060Z,2.91
2023-05-04T05:44:58.072Z,2.90
2023-05-04T05:45:58.088Z,2.89
2023-05-04T05:46:58.077Z,2.91
2023-05-04T05:47:58.118Z,2.91
2023-05-04T05:48:58.107Z,2.93
2023-05-04T05:49:58.120Z,2.97
2023-05-04T05:50:58.147Z,2.95
2023-05-04T05:51:58.246Z,2.96
2023-05-04T05:52:58.162Z,2.87
2023-05-04T05:53:58.179Z,2.89
2023-05-04T05:55:01.062Z,2.94
2023-05-04T05:55:58.202Z,2.94
2023-05-04T05:56:58.418Z,2.94
2023-05-04T05:57:58.400Z,2.96
2023-05-04T05:58:58.493Z,2.87
2023-05-04T05:59:58.278Z,2.93
2023-05-04T06:00:58.922Z,2.95
2023-05-04T06:01:58.320Z,2.90
2023-05-04T06:02:58.510Z,2.86
2023-05-04T06:03:58.690Z,2.95
2023-05-04T06:04:58.419Z,2.87
2023-05-04T06:05:58.432Z,2.97
2023-05-04T06:06:58.472Z,2.89
2023-05-04T06:08:00.733Z,2.86
2023-05-04T06:08:59.132Z,2.95
2023-05-04T06:09:58.567Z,2.96
2023-05-04T06:10:58.462Z,2.94
2023-05-04T06:11:58.507Z,2.91
2023-05-04T06:12:58.663Z,2.90
2023-05-04T06:13:58.610Z,2.95
2023-05-04T06:14:58.627Z,2.88
2023-05-04T06:15:58.686Z,2.91
2023-05-04T06:16:58.739Z,2.95
2023-05-04T06:17:58.821Z,2.92
2023-05-04T06:18:58.833Z,2.94
2023-05-04T06:19:58.877Z,2.88
2023-05-04T06:20:58.924Z,2.95
2023-05-04T06:21:58.997Z,2.93
2023-05-04T06:22:59.064Z,2.92
2023-05-04T06:23:59.099Z,2.88
2023-05-04T06:25:03.619Z,2.97
2023-05-04T06:26:00.260Z,2.97
2023-05-04T06:26:59.206Z,2.98
2023-05-04T06:27:59.222Z,2.96
2023-05-04T06:28:59.223Z,2.97
2023-05-04T06:29:59.263Z,2.92
2023-05-04T06:30:59.288Z,2.95
2023-05-04T06:31:59.354Z,2.95
2023-05-04T06:32:59.355Z,2.83
2023-05-04T06:33:59.319Z,2.85
2023-05-04T06:34:59.419Z,2.78
2023-05-04T06:35:59.374Z,2.77
2023-05-04T06:36:59.371Z,2.78
2023-05-04T06:37:59.490Z,2.69
2023-05-04T06:38:59.453Z,2.71
2023-05-04T06:39:59.416Z,2.71
2023-05-04T06:41:00.388Z,2.72
2023-05-04T06:41:59.547Z,2.72
2023-05-04T06:42:59.565Z,2.76
2023-05-04T06:43:59.553Z,2.77
2023-05-04T06:44:59.492Z,2.87
2023-05-04T06:45:59.628Z,2.85
2023-05-04T06:47:00.409Z,2.82
2023-05-04T06:48:00.416Z,2.89
2023-05-04T06:48:59.668Z,2.91
2023-05-04T06:49:59.683Z,2.92
2023-05-04T06:51:01.537Z,2.98
2023-05-04T06:51:59.976Z,2.95
2023-05-04T06:53:00.077Z,2.95
2023-05-04T06:53:59.984Z,2.96
2023-05-04T06:55:00.061Z,2.97
2023-05-04T06:56:00.165Z,2.96
2023-05-04T06:57:00.048Z,2.94
2023-05-04T06:58:00.051Z,2.93
2023-05-04T06:59:00.133Z,2.95
2023-05-04T07:00:00.069Z,2.89
2023-05-04T07:01:00.161Z,2.80
2023-05-04T07:02:00.215Z,2.79
2023-05-04T07:03:00.323Z,2.77
2023-05-04T07:04:00.504Z,2.75
2023-05-04T07:05:00.415Z,2.59
2023-05-04T07:06:00.495Z,2.51
2023-05-04T07:07:00.594Z,2.40
2023-05-04T07:08:00.658Z,2.41
2023-05-04T07:09:00.707Z,2.31
2023-05-04T07:10:00.679Z,2.18
2023-05-04T07:11:00.628Z,2.10
2023-05-04T07:12:00.658Z,2.01
2023-05-04T07:13:00.724Z,1.87
2023-05-04T07:14:00.721Z,1.83
2023-05-04T07:15:00.718Z,1.75
2023-05-04T07:16:00.782Z,1.62
2023-05-04T07:17:00.780Z,1.53
2023-05-04T07:18:00.844Z,1.46
2023-05-04T07:19:00.779Z,1.43
2023-05-04T07:20:00.810Z,1.35
2023-05-04T07:21:16.200Z,1.36
2023-05-04T07:22:01.836Z,1.26
2023-05-04T07:23:00.842Z,1.19
2023-05-04T07:24:00.809Z,1.31
2023-05-04T07:25:01.066Z,1.24
2023-05-04T07:26:00.852Z,1.12
2023-05-04T07:27:00.857Z,1.04
2023-05-04T07:28:00.878Z,0.95
2023-05-04T07:29:00.898Z,0.91
2023-05-04T07:30:01.015Z,0.92
2023-05-04T07:31:00.932Z,0.81
2023-05-04T07:32:00.935Z,0.80
2023-05-04T07:33:01.980Z,0.78
2023-05-04T07:34:00.966Z,0.71
2023-05-04T07:35:00.980Z,0.66
2023-05-04T07:36:01.014Z,0.62
2023-05-04T07:37:01.121Z,0.61
2023-05-04T07:38:01.122Z,0.62
2023-05-04T07:39:01.231Z,0.60
2023-05-04T07:40:01.336Z,0.59
2023-05-04T07:41:01.328Z,0.56
2023-05-04T07:42:01.320Z,0.54
2023-05-04T07:43:01.412Z,0.50
2023-05-04T07:44:01.405Z,0.53
2023-05-04T07:45:01.421Z,0.53
2023-05-04T07:46:01.497Z,0.53
2023-05-04T07:47:01.802Z,0.53
2023-05-04T07:48:01.462Z,0.53
2023-05-04T07:49:01.429Z,0.55
2023-05-04T07:50:01.447Z,0.58
2023-05-04T07:51:01.584Z,0.64
2023-05-04T07:52:01.447Z,0.62
2023-05-04T07:53:01.544Z,0.62
2023-05-04T07:54:01.575Z,0.65
2023-05-04T07:55:01.477Z,0.68
2023-05-04T07:56:01.566Z,0.73
2023-05-04T07:57:02.416Z,0.78
2023-05-04T07:58:01.540Z,0.80
2023-05-04T07:59:01.665Z,0.84
2023-05-04T08:00:01.530Z,0.91
2023-05-04T08:01:01.491Z,0.98
2023-05-04T08:02:01.518Z,1.03
2023-05-04T08:03:01.600Z,1.04
2023-05-04T08:04:01.497Z,1.06
2023-05-04T08:05:01.508Z,1.02
2023-05-04T08:06:02.498Z,1.08
2023-05-04T08:07:01.509Z,1.05
2023-05-04T08:08:01.596Z,1.16
2023-05-04T08:09:02.414Z,1.11
2023-05-04T08:10:01.573Z,1.11
2023-05-04T08:11:15.801Z,1.13
2023-05-04T08:12:02.544Z,1.13
2023-05-04T08:13:01.566Z,1.15
2023-05-04T08:14:01.547Z,1.15
2023-05-04T08:15:01.596Z,1.22
2023-05-04T08:16:01.556Z,1.14
2023-05-04T08:17:01.565Z,1.16
2023-05-04T08:18:01.615Z,1.28
2023-05-04T08:19:01.552Z,1.46
2023-05-04T08:20:01.508Z,1.74
2023-05-04T08:21:01.588Z,1.77
2023-05-04T08:22:01.498Z,1.64
2023-05-04T08:23:01.548Z,1.44
2023-05-04T08:24:01.541Z,1.22
2023-05-04T08:25:02.563Z,1.07
2023-05-04T08:26:02.422Z,0.99
2023-05-04T08:27:07.967Z,0.89
2023-05-04T08:28:02.604Z,0.81
2023-05-04T08:29:01.968Z,0.78
2023-05-04T08:30:01.593Z,0.69
2023-05-04T08:31:01.708Z,0.63
2023-05-04T08:32:01.620Z,0.55
2023-05-04T08:33:01.660Z,0.53
2023-05-04T08:34:01.862Z,0.51
2023-05-04T08:35:01.581Z,0.50
2023-05-04T08:36:01.617Z,0.50
2023-05-04T08:37:01.612Z,0.50
2023-05-04T08:38:01.682Z,0.52
2023-05-04T08:39:01.617Z,0.50
2023-05-04T08:40:01.610Z,0.51
2023-05-04T08:41:01.591Z,0.51
2023-05-04T08:42:01.598Z,0.51
2023-05-04T08:43:01.633Z,0.49
2023-05-04T08:44:01.951Z,0.50
2023-05-04T08:45:01.638Z,0.48
2023-05-04T08:46:01.742Z,0.52
2023-05-04T08:47:02.431Z,0.50
2023-05-04T08:48:01.680Z,0.53
2023-05-04T08:49:01.643Z,0.54
2023-05-04T08:50:02.108Z,0.52
2023-05-04T08:51:01.640Z,0.57
2023-05-04T08:52:01.621Z,0.60
2023-05-04T08:53:01.731Z,0.61
2023-05-04T08:54:01.966Z,0.84
2023-05-04T08:55:01.640Z,0.96
2023-05-04T08:56:01.627Z,0.98
2023-05-04T08:57:01.689Z,1.11
2023-05-04T08:58:01.740Z,1.09
2023-05-04T08:59:01.780Z,1.18
2023-05-04T09:00:02.018Z,1.06
2023-05-04T09:01:02.807Z,1.07
2023-05-04T09:02:01.897Z,1.07
2023-05-04T09:03:01.900Z,1.09
2023-05-04T09:04:01.858Z,1.16
2023-05-04T09:05:01.841Z,1.25
2023-05-04T09:06:01.906Z,1.30
2023-05-04T09:07:01.895Z,1.33
2023-05-04T09:08:02.053Z,1.39
2023-05-04T09:09:02.079Z,1.50
2023-05-04T09:10:02.033Z,1.65
2023-05-04T09:11:02.081Z,1.60
2023-05-04T09:12:02.186Z,1.70
2023-05-04T09:13:02.254Z,1.80
2023-05-04T09:14:02.300Z,1.90
2023-05-04T09:15:02.678Z,2.01
2023-05-04T09:16:02.339Z,2.01
2023-05-04T09:17:02.458Z,2.03
2023-05-04T09:18:02.451Z,2.11
2023-05-04T09:19:02.583Z,2.23
2023-05-04T09:20:02.375Z,2.51
2023-05-04T09:21:02.345Z,2.77
2023-05-04T09:22:02.417Z,2.84
2023-05-04T09:23:02.364Z,2.92
2023-05-04T09:24:02.407Z,3.02
2023-05-04T09:25:02.456Z,3.13
2023-05-04T09:26:02.374Z,3.14
2023-05-04T09:27:02.444Z,3.20
2023-05-04T09:28:02.388Z,3.29
2023-05-04T09:29:02.490Z,3.47
2023-05-04T09:30:02.340Z,3.75
2023-05-04T09:31:02.384Z,3.94
2023-05-04T09:32:02.304Z,4.11
2023-05-04T09:33:02.345Z,4.26
2023-05-04T09:34:02.381Z,4.30
2023-05-04T09:35:02.707Z,4.51
2023-05-04T09:36:02.455Z,4.64
2023-05-04T09:37:02.667Z,4.71
2023-05-04T09:38:02.561Z,4.91
2023-05-04T09:39:02.627Z,5.15
2023-05-04T09:40:02.699Z,5.00
2023-05-04T09:41:02.766Z,5.36
2023-05-04T09:42:02.771Z,5.60
2023-05-04T09:43:03.037Z,5.26
2023-05-04T09:44:02.965Z,5.26
2023-05-04T09:45:03.145Z,5.26
2023-05-04T09:46:02.882Z,5.34
2023-05-04T09:47:02.808Z,5.33
2023-05-04T09:48:03.470Z,5.21
2023-05-04T09:49:02.914Z,5.08
2023-05-04T09:50:03.138Z,5.10
2023-05-04T09:51:03.486Z,5.11
2023-05-04T09:52:03.004Z,5.13
2023-05-04T09:53:02.922Z,5.11
2023-05-04T09:54:02.840Z,5.22
2023-05-04T09:55:03.007Z,5.26
2023-05-04T09:56:05.070Z,5.48
2023-05-04T09:57:02.791Z,5.52
2023-05-04T09:58:02.963Z,5.58
2023-05-04T09:59:02.820Z,5.71
2023-05-04T10:00:02.855Z,5.53
2023-05-04T10:01:02.767Z,5.43
2023-05-04T10:02:18.231Z,5.65
2023-05-04T10:03:03.772Z,5.65
2023-05-04T10:04:03.060Z,5.65
2023-05-04T10:05:02.929Z,5.54
2023-05-04T10:06:03.469Z,5.33
2023-05-04T10:07:02.694Z,5.15
2023-05-04T10:08:02.721Z,5.17
2023-05-04T10:09:02.846Z,5.12
2023-05-04T10:10:02.678Z,4.95
2023-05-04T10:11:02.752Z,4.95
2023-05-04T10:12:02.693Z,4.87
2023-05-04T10:13:02.792Z,4.75
2023-05-04T10:14:02.854Z,4.59
2023-05-04T10:15:02.924Z,4.55
2023-05-04T10:16:02.995Z,4.55
2023-05-04T10:17:02.948Z,4.52
2023-05-04T10:18:03.116Z,4.33
2023-05-04T10:19:04.124Z,4.39
2023-05-04T10:20:03.103Z,4.39
2023-05-04T10:21:03.213Z,4.41
2023-05-04T10:22:03.185Z,4.53
2023-05-04T10:23:03.172Z,4.65
2023-05-04T10:24:03.247Z,5.05
2023-05-04T10:25:04.177Z,4.90
2023-05-04T10:26:03.402Z,5.09
2023-05-04T10:27:03.411Z,5.24
2023-05-04T10:28:06.007Z,5.43
2023-05-04T10:29:03.675Z,5.58
2023-05-04T10:30:04.501Z,5.62
2023-05-04T10:31:03.815Z,5.77
2023-05-04T10:32:03.882Z,5.79
2023-05-04T10:33:03.915Z,6.03
2023-05-04T10:34:03.858Z,6.21
2023-05-04T10:35:04.169Z,6.35
2023-05-04T10:36:03.953Z,6.04
2023-05-04T10:37:04.101Z,5.28
2023-05-04T10:38:04.040Z,5.07
2023-05-04T10:39:04.511Z,5.07
2023-05-04T10:40:07.178Z,5.08
2023-05-04T10:41:04.036Z,5.08
2023-05-04T10:42:05.085Z,4.98
2023-05-04T10:43:04.084Z,4.77
2023-05-04T10:44:04.025Z,4.69
2023-05-04T10:45:04.261Z,4.45
2023-05-04T10:46:04.015Z,4.67
2023-05-04T10:47:04.032Z,4.26
2023-05-04T10:48:04.004Z,4.37
2023-05-04T10:49:03.986Z,4.19
2023-05-04T10:50:03.948Z,4.24
2023-05-04T10:51:03.939Z,4.06
2023-05-04T10:52:04.099Z,4.23
2023-05-04T10:53:03.967Z,3.93
2023-05-04T10:54:03.986Z,3.92
2023-05-04T10:55:04.130Z,4.06
2023-05-04T10:56:03.918Z,4.02
2023-05-04T10:57:03.995Z,4.01
2023-05-04T10:58:03.897Z,4.16
2023-05-04T10:59:03.928Z,3.98
2023-05-04T11:00:03.900Z,3.64
2023-05-04T11:01:04.020Z,4.02
2023-05-04T11:02:06.566Z,3.77
2023-05-04T11:03:04.212Z,3.77
2023-05-04T11:04:03.926Z,3.49
2023-05-04T11:05:04.811Z,3.30
2023-05-04T11:06:03.900Z,3.35
2023-05-04T11:07:03.997Z,3.30
2023-05-04T11:08:03.887Z,3.13
2023-05-04T11:09:04.120Z,3.01
2023-05-04T11:10:04.533Z,3.27
2023-05-04T11:11:03.852Z,2.84
2023-05-04T11:12:03.910Z,2.86
2023-05-04T11:13:06.113Z,2.96
2023-05-04T11:14:04.325Z,2.70
2023-05-04T11:15:03.945Z,2.99
2023-05-04T11:16:03.844Z,3.35
2023-05-04T11:17:05.388Z,3.36
2023-05-04T11:18:03.962Z,3.36
2023-05-04T11:19:03.813Z,3.41
2023-05-04T11:20:03.861Z,3.47
2023-05-04T11:21:03.769Z,3.64
2023-05-04T11:22:03.900Z,3.95
2023-05-04T11:23:04.510Z,4.07
2023-05-04T11:24:03.764Z,3.72
2023-05-04T11:25:04.029Z,4.07
2023-05-04T11:26:03.876Z,3.78
2023-05-04T11:27:03.837Z,3.85
2023-05-04T11:28:03.744Z,4.11
2023-05-04T11:29:03.779Z,3.88
2023-05-04T11:30:03.891Z,3.82
2023-05-04T11:31:05.678Z,3.70
2023-05-04T11:32:04.507Z,3.56
2023-05-04T11:33:03.913Z,3.29
2023-05-04T11:34:03.712Z,3.38
2023-05-04T11:35:03.916Z,3.31
2023-05-04T11:36:04.560Z,3.06
2023-05-04T11:37:03.705Z,3.02
2023-05-04T11:38:03.674Z,2.95
2023-05-04T11:39:03.753Z,3.09
2023-05-04T11:40:04.595Z,2.91
2023-05-04T11:41:03.822Z,2.95
2023-05-04T11:42:03.849Z,2.75
2023-05-04T11:43:03.932Z,2.96
2023-05-04T11:44:04.005Z,2.88
2023-05-04T11:45:04.759Z,2.76
2023-05-04T11:46:04.201Z,2.78
2023-05-04T11:47:04.034Z,2.78
2023-05-04T11:48:04.179Z,2.74
2023-05-04T11:49:04.249Z,2.61
2023-05-04T11:50:04.389Z,2.53
2023-05-04T11:51:04.145Z,2.52
2023-05-04T11:52:04.391Z,2.67
2023-05-04T11:53:04.223Z,2.84
2023-05-04T11:54:04.609Z,2.62
2023-05-04T11:55:04.397Z,2.56
2023-05-04T11:56:05.020Z,2.53
2023-05-04T11:57:04.292Z,2.62
2023-05-04T11:58:04.288Z,2.55
2023-05-04T11:59:05.095Z,2.68
2023-05-04T12:00:04.299Z,2.56
2023-05-04T12:01:04.701Z,2.61
2023-05-04T12:02:04.335Z,2.63
2023-05-04T12:03:04.621Z,2.63
2023-05-04T12:04:04.480Z,2.60
2023-05-04T12:05:04.623Z,2.63
2023-05-04T12:06:04.355Z,2.70
2023-05-04T12:07:04.388Z,2.91
2023-05-04T12:08:04.377Z,3.22
2023-05-04T12:09:04.424Z,3.01
2023-05-04T12:10:05.207Z,3.18
2023-05-04T12:11:04.348Z,3.06
2023-05-04T12:12:04.281Z,3.21
2023-05-04T12:13:04.287Z,3.33
2023-05-04T12:14:05.264Z,3.26
2023-05-04T12:15:04.320Z,3.37
2023-05-04T12:16:05.186Z,3.38
2023-05-04T12:17:04.249Z,3.67
2023-05-04T12:18:04.296Z,3.77
2023-05-04T12:19:04.286Z,3.92
2023-05-04T12:20:04.263Z,3.89
2023-05-04T12:21:05.227Z,4.03
2023-05-04T12:22:04.295Z,3.97
2023-05-04T12:23:05.042Z,4.36
2023-05-04T12:24:08.534Z,4.39
2023-05-04T12:25:05.202Z,4.39
2023-05-04T12:26:05.057Z,4.43
2023-05-04T12:27:04.433Z,4.49
2023-05-04T12:28:04.418Z,4.70
2023-05-04T12:29:04.370Z,4.84
2023-05-04T12:30:04.684Z,5.16
2023-05-04T12:31:04.433Z,5.28
2023-05-04T12:32:04.353Z,5.29
2023-05-04T12:33:04.487Z,5.62
2023-05-04T12:34:04.424Z,5.67
2023-05-04T12:35:05.185Z,5.33
2023-05-04T12:36:04.675Z,5.36
2023-05-04T12:37:04.675Z,5.39
2023-05-04T12:38:05.565Z,5.60
2023-05-04T12:39:04.785Z,5.71
2023-05-04T12:40:11.248Z,5.92
2023-05-04T12:41:06.552Z,5.37
2023-05-04T12:42:04.800Z,5.51
2023-05-04T12:43:04.729Z,5.70
2023-05-04T12:44:04.664Z,6.08
2023-05-04T12:45:05.770Z,5.38
2023-05-04T12:46:05.659Z,5.56
2023-05-04T12:47:04.631Z,5.86
2023-05-04T12:48:04.746Z,6.46
2023-05-04T12:49:04.661Z,7.39
2023-05-04T12:50:04.671Z,7.59
2023-05-04T12:51:04.695Z,7.57
2023-05-04T12:52:04.659Z,7.90
2023-05-04T12:53:04.595Z,7.89
2023-05-04T12:54:04.706Z,7.83
2023-05-04T12:55:04.918Z,7.92
2023-05-04T12:56:05.544Z,7.90
2023-05-04T12:57:04.742Z,8.13
2023-05-04T12:58:04.785Z,8.33
2023-05-04T12:59:05.556Z,8.42
2023-05-04T13:00:04.871Z,8.27
2023-05-04T13:02:24.165Z,0.50
2023-05-04T13:03:24.294Z,0.50
2023-05-04T13:04:24.179Z,0.50
2023-05-04T13:05:24.136Z,0.50
2023-05-04T13:06:24.188Z,0.50
2023-05-04T13:07:24.129Z,0.52
2023-05-04T13:08:24.190Z,0.52
2023-05-04T13:09:24.155Z,0.51
2023-05-04T13:10:24.301Z,0.51
2023-05-04T13:11:24.320Z,0.51
2023-05-04T13:12:24.406Z,0.50
2023-05-04T13:13:24.582Z,0.51
2023-05-04T13:14:24.645Z,0.51